Eastwood, United Kingdom
Current Conditions -  °F | °C
As of 2:20 AM on Monday 22 Dec 2014 (Local Time) from EGNX Reporting Station
Broken Clouds Broken Clouds  
Wind Chill: 55°   Ceiling: 2100
Heat Index: 55°   Visibility: 6mi
Dew Point: 48°   Wind: 20mph
Humidity: 77%   Direction: 230°SW
Pressure: 29.91"   Gusts: NA
Location:  53°N, 1.3°W
Report Text: EGNX 220220Z 23017KT 9999 BKN021 13/09 Q1013
Loading
Personal Weather Stations






























Interactive Weather Map New forecast layout! Learn more

10-Day Weather Forecast

Advertisements
Track Severe Weather on mobile